Time;durP1;ratioP1;P1;durP2;ratioP2;P2;SDS_P1;SDS_P2;PMS_P1;PMS_P2;Temp;Humidity;BMP_temperature;BMP_pressure;BME280_temperature;BME280_humidity;BME280_pressure;Samples;Min_cycle;Max_cycle;Signal;HPM_P1;HPM_P2
2021/07/15 00:00:10;;;;;;;0.40;0.00;;;;;;;24.63;59.23;100173.79;126340;1095;102980;-74
2021/07/15 00:03:04;;;;;;;0.40;0.00;;;;;;;24.61;58.96;100171.17;126209;1095;102914;-72
2021/07/15 00:06:02;;;;;;;0.40;0.00;;;;;;;24.57;59.27;100177.05;126263;1096;113543;-72
2021/07/15 00:08:38;;;;;;;0.40;0.00;;;;;;;24.54;59.28;100178.17;126435;1095;102876;-73
2021/07/15 00:11:13;;;;;;;0.40;0.00;;;;;;;24.56;59.40;100178.89;126306;1096;114906;-72
2021/07/15 00:13:56;;;;;;;0.40;0.00;;;;;;;24.53;59.48;100171.00;126240;1095;102868;-72
2021/07/15 00:16:32;;;;;;;0.40;0.00;;;;;;;24.39;59.64;100174.93;127230;1095;114437;-72
2021/07/15 00:19:11;;;;;;;0.40;0.00;;;;;;;24.34;60.04;100174.50;126531;1095;102991;-72
2021/07/15 00:21:39;;;;;;;0.40;0.00;;;;;;;24.38;59.96;100168.64;126091;1096;117200;-71
2021/07/15 00:24:11;;;;;;;0.40;0.00;;;;;;;24.37;59.97;100158.73;126483;1096;102987;-72
2021/07/15 00:26:40;;;;;;;0.40;0.00;;;;;;;24.30;60.28;100151.24;127596;1095;102042;-72
2021/07/15 00:29:14;;;;;;;0.40;0.00;;;;;;;24.19;60.29;100142.19;126709;1094;114851;-71
2021/07/15 00:31:59;;;;;;;0.40;0.00;;;;;;;24.19;60.15;100134.03;126473;1096;103113;-72
2021/07/15 00:34:43;;;;;;;0.40;0.00;;;;;;;24.20;60.34;100132.16;126218;1096;115078;-72
2021/07/15 00:37:27;;;;;;;0.40;0.00;;;;;;;24.25;60.27;100126.33;127551;1095;101797;-73
2021/07/15 00:40:15;;;;;;;0.40;0.00;;;;;;;24.25;60.41;100108.13;126534;1096;114059;-71
2021/07/15 00:42:59;;;;;;;0.40;0.00;;;;;;;24.24;60.39;100089.22;126441;1095;103014;-72
2021/07/15 00:45:31;;;;;;;0.40;0.00;;;;;;;24.16;60.30;100085.30;126167;1095;115124;-72
2021/07/15 00:48:16;;;;;;;0.40;0.00;;;;;;;24.21;59.97;100090.34;126347;1095;103489;-72
2021/07/15 00:50:53;;;;;;;0.40;0.00;;;;;;;24.21;60.48;100072.15;126628;1095;101721;-72
2021/07/15 00:53:38;;;;;;;0.40;0.00;;;;;;;24.17;60.05;100062.54;126577;1096;115418;-71
2021/07/15 00:56:21;;;;;;;0.40;0.00;;;;;;;24.19;59.82;100071.44;126201;1096;103139;-71
2021/07/15 00:59:04;;;;;;;0.40;0.00;;;;;;;24.17;59.43;100062.54;126240;1096;113495;-72
2021/07/15 01:01:37;;;;;;;0.40;0.00;;;;;;;24.12;59.65;100062.08;126422;1096;101770;-74
2021/07/15 01:06:11;;;;;;;0.40;0.00;;;;;;;24.03;59.72;100052.90;126588;1092;102880;-73
2021/07/15 01:08:48;;;;;;;0.40;0.00;;;;;;;24.02;60.19;100039.44;127149;1093;100659;-73
2021/07/15 01:11:55;;;;;;;0.40;0.00;;;;;;;24.06;60.23;100029.13;126457;1093;114816;-73
2021/07/15 01:14:55;;;;;;;0.40;0.00;;;;;;;23.94;60.14;100022.91;126644;1092;103042;-74
2021/07/15 01:17:43;;;;;;;0.40;0.00;;;;;;;23.93;60.06;100021.22;126397;1092;115112;-73
2021/07/15 01:20:44;;;;;;;0.40;0.00;;;;;;;23.97;59.73;100001.75;126507;1093;102998;-73
2021/07/15 01:24:03;;;;;;;0.40;0.00;;;;;;;24.03;59.65;100001.21;126641;1092;115542;-74
2021/07/15 01:26:54;;;;;;;0.40;0.00;;;;;;;24.06;59.69;99999.20;126531;1092;101901;-73
2021/07/15 01:29:55;;;;;;;0.40;0.00;;;;;;;24.02;59.86;100006.80;126452;1093;115265;-73
2021/07/15 01:33:15;;;;;;;0.40;0.00;;;;;;;23.99;60.16;99990.72;126544;1092;101930;-73
2021/07/15 01:35:53;;;;;;;0.40;0.00;;;;;;;23.84;60.43;99982.90;126558;1093;115463;-75
2021/07/15 01:38:48;;;;;;;0.40;0.00;;;;;;;23.69;60.46;99990.56;126612;1093;103017;-74
2021/07/15 01:41:34;;;;;;;0.40;0.00;;;;;;;23.68;60.75;99991.55;126465;1093;114821;-74
2021/07/15 01:44:30;;;;;;;0.40;0.00;;;;;;;23.75;60.77;100004.63;126563;1092;102294;-74
2021/07/15 01:47:14;;;;;;;0.40;0.00;;;;;;;23.82;60.16;100003.09;126370;1092;112933;-74
2021/07/15 01:50:00;;;;;;;0.40;0.00;;;;;;;23.93;60.09;99988.58;126454;1093;102863;-73
2021/07/15 01:52:42;;;;;;;0.40;0.00;;;;;;;23.93;60.14;99978.55;126411;1093;113219;-73
2021/07/15 01:55:25;;;;;;;0.40;0.00;;;;;;;23.80;60.21;99986.89;126480;1093;103016;-74
2021/07/15 01:58:10;;;;;;;0.40;0.00;;;;;;;23.72;60.05;100011.19;126402;1092;114141;-74
2021/07/15 02:00:52;;;;;;;0.40;0.00;;;;;;;23.86;60.31;100035.31;126503;1093;102871;-74
2021/07/15 02:03:25;;;;;;;0.40;0.00;;;;;;;23.88;59.94;100044.21;126444;1093;102877;-74
2021/07/15 02:06:09;;;;;;;0.40;0.00;;;;;;;23.92;60.38;100043.96;126402;1093;115308;-74
2021/07/15 02:08:46;;;;;;;0.40;0.00;;;;;;;23.99;59.52;100061.45;126468;1093;103003;-73
2021/07/15 02:11:33;;;;;;;0.40;0.00;;;;;;;24.10;59.38;100072.26;126428;1093;114461;-74
2021/07/15 02:14:16;;;;;;;0.40;0.00;;;;;;;24.15;59.10;100109.92;126561;1093;102905;-75
2021/07/15 02:16:51;;;;;;;0.40;0.00;;;;;;;24.03;59.45;100291.41;126385;1093;114636;-75
2021/07/15 02:19:34;;;;;;;0.40;0.00;;;;;;;23.76;60.60;100295.44;126560;1093;102218;-73
2021/07/15 02:22:19;;;;;;;0.40;0.00;;;;;;;23.61;61.25;100316.63;126526;1092;114438;-75
2021/07/15 02:25:04;;;;;;;0.40;0.00;;;;;;;23.52;60.41;100314.66;126544;1093;102874;-74
2021/07/15 02:27:48;;;;;;;0.40;0.00;;;;;;;23.60;58.63;100343.94;126441;1093;102888;-74
2021/07/15 02:30:31;;;;;;;0.40;0.00;;;;;;;23.73;57.99;100338.37;126381;1092;113937;-75
2021/07/15 02:33:18;;;;;;;0.40;0.00;;;;;;;23.79;59.02;100386.78;126395;1092;102947;-74
2021/07/15 02:36:03;;;;;;;0.40;0.00;;;;;;;23.68;63.68;100455.66;127278;1093;114485;-75
2021/07/15 02:38:49;;;;;;;0.40;0.00;;;;;;;23.37;66.13;100428.22;126395;1093;102958;-75
2021/07/15 02:41:40;;;;;;;0.40;0.00;;;;;;;23.09;66.67;100396.92;126392;1092;113996;-73
2021/07/15 02:44:36;;;;;;;0.40;0.00;;;;;;;22.90;67.43;100354.91;126944;1093;101784;-73
2021/07/15 02:47:28;;;;;;;0.40;0.00;;;;;;;22.80;68.39;100288.73;126549;1093;112684;-74
2021/07/15 02:50:08;;;;;;;0.40;0.00;;;;;;;22.73;68.66;100225.91;126698;1092;102942;-75
2021/07/15 02:52:52;;;;;;;0.40;0.00;;;;;;;22.73;68.21;100200.63;126573;1093;116290;-74
2021/07/15 02:55:29;;;;;;;0.40;0.00;;;;;;;22.69;68.40;100143.84;126517;1093;102953;-75
2021/07/15 02:58:25;;;;;;;0.40;0.00;;;;;;;22.61;68.59;100127.33;126905;1093;114268;-74
2021/07/15 03:01:11;;;;;;;0.40;0.00;;;;;;;22.48;68.95;100148.30;126421;1095;103010;-72
2021/07/15 03:04:00;;;;;;;0.40;0.00;;;;;;;22.48;69.08;100170.02;126620;1092;102946;-72
2021/07/15 03:06:38;;;;;;;0.40;0.00;;;;;;;22.33;69.41;100170.22;127580;1093;113991;-72
2021/07/15 03:09:26;;;;;;;0.40;0.00;;;;;;;22.22;70.38;100167.51;126821;1093;102866;-73
2021/07/15 03:12:25;;;;;;;0.40;0.00;;;;;;;21.95;71.81;100165.09;127535;1093;114106;-73
2021/07/15 03:15:10;;;;;;;0.40;0.00;;;;;;;21.95;71.79;100155.14;126385;1093;102904;-72
2021/07/15 03:18:06;;;;;;;0.40;0.00;;;;;;;22.20;71.46;100145.91;126978;1093;115414;-73
2021/07/15 03:20:45;;;;;;;0.40;0.00;;;;;;;22.42;71.72;100132.50;126456;1093;102861;-74
2021/07/15 03:23:20;;;;;;;0.40;0.00;;;;;;;22.52;70.34;100122.64;127618;1092;114508;-72
2021/07/15 03:26:03;;;;;;;0.40;0.00;;;;;;;22.53;70.83;100124.38;126801;1092;101937;-73
2021/07/15 03:28:47;;;;;;;0.40;0.00;;;;;;;22.65;70.67;100128.80;127629;1093;114693;-74
2021/07/15 03:31:18;;;;;;;0.40;0.00;;;;;;;22.73;70.50;100138.19;126913;1093;102983;-73
2021/07/15 03:34:22;;;;;;;0.40;0.00;;;;;;;22.84;70.00;100154.45;126606;1093;102894;-73
2021/07/15 03:48:26;;;;;;;0.40;0.00;;;;;;;23.09;70.92;100183.16;126279;1096;114169;-72
2021/07/15 03:51:03;;;;;;;0.40;0.00;;;;;;;23.13;71.08;100192.82;126390;1096;102884;-72
2021/07/15 03:53:40;;;;;;;0.40;0.00;;;;;;;23.04;71.02;100220.70;126323;1096;115276;-73
2021/07/15 03:56:18;;;;;;;0.40;0.00;;;;;;;23.15;71.18;100226.17;126264;1096;102934;-72
2021/07/15 03:58:55;;;;;;;0.40;0.00;;;;;;;23.23;71.00;100247.25;126235;1096;102950;-72
2021/07/15 04:01:32;;;;;;;0.40;0.00;;;;;;;23.31;71.03;100247.51;126320;1096;114730;-72
2021/07/15 04:04:14;;;;;;;0.40;0.00;;;;;;;23.37;70.79;100263.29;126243;1096;102976;-72
2021/07/15 04:06:50;;;;;;;0.40;0.00;;;;;;;23.16;71.28;100289.51;126159;1095;115212;-71
2021/07/15 04:09:34;;;;;;;0.40;0.00;;;;;;;23.07;71.30;100311.95;126627;1095;102908;-73
2021/07/15 04:12:14;;;;;;;0.40;0.00;;;;;;;23.01;71.07;100333.18;126287;1095;114493;-72
2021/07/15 04:15:04;;;;;;;0.40;0.00;;;;;;;22.96;70.74;100350.84;126480;1095;102874;-72
2021/07/15 04:17:49;;;;;;;0.40;0.00;;;;;;;22.83;71.27;100349.10;127315;1096;114683;-74
2021/07/15 04:20:26;;;;;;;0.40;0.00;;;;;;;22.85;70.35;100324.53;127042;1096;101700;-71
2021/07/15 04:23:09;;;;;;;0.40;0.00;;;;;;;22.93;70.73;100294.06;127736;1097;100672;-72
2021/07/15 04:25:43;;;;;;;0.40;0.00;;;;;;;23.05;70.54;100283.05;127030;1095;114236;-72
2021/07/15 04:28:22;;;;;;;0.40;0.00;;;;;;;22.96;71.14;100274.80;126633;1096;101610;-73
2021/07/15 04:31:22;;;;;;;0.40;0.00;;;;;;;23.01;71.33;100258.99;126355;1095;115587;-72
2021/07/15 04:33:54;;;;;;;0.40;0.00;;;;;;;23.15;71.20;100226.17;127106;1097;103674;-73
2021/07/15 04:36:37;;;;;;;0.40;0.00;;;;;;;23.18;70.44;100179.72;126356;1095;114305;-72
2021/07/15 04:39:13;;;;;;;0.40;0.00;;;;;;;23.27;70.08;100133.75;127731;1096;100615;-73
2021/07/15 04:41:57;;;;;;;0.40;0.00;;;;;;;23.28;70.29;100097.44;126952;1095;115555;-73
2021/07/15 04:44:45;;;;;;;0.40;0.00;;;;;;;23.18;70.28;100072.92;126605;1095;102916;-73
2021/07/15 04:47:28;;;;;;;0.40;0.00;;;;;;;23.19;70.73;100080.05;126259;1100;115720;-74
2021/07/15 04:50:09;;;;;;;0.40;0.00;;;;;;;23.16;70.71;100075.73;126219;1098;104712;-74
2021/07/15 04:53:14;;;;;;;0.40;0.00;;;;;;;23.30;70.25;100088.17;126190;1098;103095;-74
2021/07/15 04:55:57;;;;;;;0.40;0.00;;;;;;;23.32;70.50;100082.59;125997;1096;114179;-74
2021/07/15 04:58:41;;;;;;;0.40;0.00;;;;;;;23.32;70.56;100093.47;126347;1096;103033;-73
2021/07/15 05:01:38;;;;;;;0.40;0.00;;;;;;;23.31;71.12;100103.48;126351;1096;113433;-73
2021/07/15 05:04:21;;;;;;;0.40;0.00;;;;;;;23.34;71.85;100094.22;126359;1096;103255;-73
2021/07/15 05:07:05;;;;;;;0.40;0.00;;;;;;;23.52;71.49;100080.89;127166;1095;114180;-74
2021/07/15 05:09:47;;;;;;;0.40;0.00;;;;;;;23.51;71.97;100063.73;126378;1095;102997;-73
2021/07/15 05:12:20;;;;;;;0.40;0.00;;;;;;;23.57;71.92;100075.07;126196;1096;115638;-72
2021/07/15 05:15:08;;;;;;;0.40;0.00;;;;;;;23.60;71.20;100072.08;126910;1095;103351;-73
2021/07/15 05:17:40;;;;;;;0.40;0.00;;;;;;;23.54;72.03;100047.14;126103;1094;103023;-73
2021/07/15 05:20:27;;;;;;;0.40;0.00;;;;;;;23.54;72.85;100038.14;126382;1095;115649;-72
2021/07/15 05:22:58;;;;;;;0.40;0.00;;;;;;;23.70;73.15;100037.66;126606;1095;102869;-73
2021/07/15 05:25:53;;;;;;;0.40;0.00;;;;;;;23.73;72.57;100040.11;127043;1096;114554;-73
2021/07/15 05:28:54;;;;;;;0.40;0.00;;;;;;;23.82;72.99;100047.45;126559;1094;102890;-73
2021/07/15 05:31:48;;;;;;;0.40;0.00;;;;;;;24.04;73.23;100061.91;126416;1096;115051;-73
2021/07/15 05:34:28;;;;;;;0.40;0.00;;;;;;;24.23;72.79;100063.84;126672;1095;102868;-74
2021/07/15 05:37:10;;;;;;;0.40;0.00;;;;;;;24.48;72.63;100067.94;126331;1095;114584;-72
2021/07/15 05:39:53;;;;;;;0.40;0.00;;;;;;;24.59;72.37;100061.55;126473;1096;101206;-74
2021/07/15 05:42:36;;;;;;;0.40;0.00;;;;;;;24.67;71.55;100048.13;126412;1094;114970;-73
2021/07/15 05:45:18;;;;;;;0.40;0.00;;;;;;;24.69;71.55;100040.66;126437;1094;102888;-73
2021/07/15 05:48:03;;;;;;;0.40;0.00;;;;;;;24.82;71.70;100042.28;126625;1094;103020;-73
2021/07/15 05:50:45;;;;;;;0.40;0.00;;;;;;;24.82;71.10;100042.28;126332;1095;115544;-73
2021/07/15 05:53:18;;;;;;;0.40;0.00;;;;;;;24.81;71.12;100026.93;126567;1094;102923;-73
2021/07/15 05:56:01;;;;;;;0.40;0.00;;;;;;;24.85;70.50;100015.59;126451;1095;114483;-73
2021/07/15 05:58:31;;;;;;;0.40;0.00;;;;;;;24.89;70.66;100010.73;126466;1095;103361;-72
2021/07/15 06:01:08;;;;;;;0.40;0.00;;;;;;;24.92;70.72;100004.98;126717;1095;113553;-72
2021/07/15 06:04:15;;;;;;;0.40;0.00;;;;;;;24.99;70.78;99997.09;126726;1095;103014;-73
2021/07/15 06:07:10;;;;;;;0.40;0.00;;;;;;;25.12;69.90;99981.31;126381;1096;116018;-72
2021/07/15 06:09:47;;;;;;;0.40;0.00;;;;;;;25.06;70.22;99973.73;126611;1095;102869;-72
2021/07/15 06:12:30;;;;;;;0.40;0.00;;;;;;;25.12;70.32;99977.74;126363;1096;114822;-73
2021/07/15 06:18:50;;;;;;;0.40;0.00;;;;;;;25.13;70.66;99968.57;126513;1095;114435;-72
2021/07/15 06:21:33;;;;;;;0.40;0.00;;;;;;;25.15;69.62;99970.14;126351;1095;103046;-72
2021/07/15 06:24:15;;;;;;;0.40;0.00;;;;;;;25.24;71.38;99970.27;127727;1094;100597;-74
2021/07/15 06:26:59;;;;;;;0.40;0.00;;;;;;;25.35;69.01;99964.67;126501;1094;114891;-72
2021/07/15 06:29:49;;;;;;;0.40;0.00;;;;;;;25.42;69.63;99964.94;126722;1095;102678;-73
2021/07/15 06:32:33;;;;;;;0.40;0.00;;;;;;;25.38;68.27;99961.67;126283;1095;115627;-74
2021/07/15 06:35:17;;;;;;;0.40;0.00;;;;;;;25.39;68.31;99959.80;126351;1095;102908;-72
2021/07/15 06:38:00;;;;;;;0.40;0.00;;;;;;;25.57;68.25;99970.81;126293;1096;112809;-73
2021/07/15 06:40:44;;;;;;;0.40;0.00;;;;;;;25.71;68.66;99964.84;127350;1095;102855;-72
2021/07/15 06:43:26;;;;;;;0.40;0.00;;;;;;;25.82;68.96;99961.95;127614;1096;115778;-74
2021/07/15 06:46:09;;;;;;;0.40;0.00;;;;;;;25.78;67.39;99951.47;126450;1096;102932;-73
2021/07/15 06:48:45;;;;;;;0.40;0.00;;;;;;;25.66;67.33;99940.77;127626;1095;114771;-73
2021/07/15 06:51:22;;;;;;;0.40;0.00;;;;;;;25.58;66.26;99943.38;126812;1096;102897;-72
2021/07/15 06:53:53;;;;;;;0.40;0.00;;;;;;;25.59;66.83;99936.05;126474;1097;101742;-71
2021/07/15 06:56:39;;;;;;;0.40;0.00;;;;;;;25.62;65.34;99941.20;126399;1095;115527;-73
2021/07/15 06:59:32;;;;;;;0.40;0.00;;;;;;;25.66;66.63;99950.83;126603;1096;101741;-72
2021/07/15 07:02:15;;;;;;;0.40;0.00;;;;;;;25.78;64.08;99955.08;126347;1096;115452;-73
2021/07/15 07:04:58;;;;;;;0.40;0.00;;;;;;;25.90;62.65;99966.66;126355;1096;103009;-73
2021/07/15 07:07:47;;;;;;;0.40;0.00;;;;;;;25.90;65.04;99966.66;126211;1096;115548;-74
2021/07/15 07:10:54;;;;;;;0.40;0.00;;;;;;;26.04;65.86;99973.50;126668;1096;102919;-74
2021/07/15 07:13:36;;;;;;;0.40;0.00;;;;;;;26.12;63.08;99981.79;126267;1096;114052;-73
2021/07/15 07:16:20;;;;;;;0.40;0.00;;;;;;;26.23;63.44;99988.06;126906;1097;102881;-73
2021/07/15 07:18:57;;;;;;;0.40;0.00;;;;;;;26.29;64.90;99985.58;126779;1097;114724;-74
2021/07/15 07:21:41;;;;;;;0.40;0.00;;;;;;;26.41;63.83;99994.42;126655;1097;103389;-72
2021/07/15 07:24:21;;;;;;;0.40;0.00;;;;;;;26.61;64.20;100000.61;126484;1095;102871;-73
2021/07/15 07:27:11;;;;;;;0.40;0.00;;;;;;;26.70;62.31;99993.38;126492;1095;115174;-74
2021/07/15 07:32:36;;;;;;;0.40;0.00;;;;;;;26.80;61.07;99961.39;126345;1093;209990;-86
2021/07/15 07:35:07;;;;;;;0.40;0.00;;;;;;;26.90;62.19;99952.25;126421;1093;103020;-87
2021/07/15 07:37:35;;;;;;;0.40;0.00;;;;;;;27.08;61.12;99958.55;126389;1093;113371;-88
2021/07/15 07:40:07;;;;;;;0.40;0.00;;;;;;;27.11;59.77;99965.58;126439;1093;102862;-89
2021/07/15 07:42:34;;;;;;;0.40;0.00;;;;;;;27.17;60.02;99974.00;126655;1093;102868;-86
2021/07/15 07:45:04;;;;;;;0.40;0.00;;;;;;;27.16;58.95;99972.31;126386;1092;113370;-89
2021/07/15 07:47:31;;;;;;;0.40;0.00;;;;;;;27.22;61.17;99964.46;126531;1097;103071;-88
2021/07/15 07:50:00;;;;;;;0.40;0.00;;;;;;;27.35;58.88;99954.84;126514;1093;114620;-88
2021/07/15 07:56:39;;;;;;;0.40;0.00;;;;;;;27.58;59.75;99972.60;126492;1099;114750;-87
2021/07/15 07:59:08;;;;;;;0.40;0.00;;;;;;;27.63;57.64;99973.86;126478;1098;101758;-88
2021/07/15 08:01:36;;;;;;;0.40;0.00;;;;;;;27.73;60.60;99970.14;126621;1099;115078;-88
2021/07/15 08:04:04;;;;;;;0.40;0.00;;;;;;;27.93;60.72;99973.50;126563;1098;102985;-88
2021/07/15 08:06:34;;;;;;;0.40;0.00;;;;;;;28.08;57.92;99976.50;126290;1100;102920;-88
2021/07/15 08:09:16;;;;;;;0.40;0.00;;;;;;;28.18;57.29;99983.55;126161;1099;113666;-90
2021/07/15 08:11:46;;;;;;;0.40;0.00;;;;;;;28.31;55.84;100004.13;126095;1098;103085;-88
2021/07/15 08:14:18;;;;;;;0.40;0.00;;;;;;;28.39;55.36;100015.13;126424;1099;114845;-85
2021/07/15 08:16:51;;;;;;;0.40;0.00;;;;;;;28.46;55.49;100029.02;126122;1099;100836;-79
2021/07/15 08:19:20;;;;;;;0.40;0.00;;;;;;;28.54;54.20;100037.27;125974;1098;113915;-87
2021/07/15 08:21:47;;;;;;;0.40;0.00;;;;;;;28.58;52.05;100057.83;126086;1100;102959;-88
2021/07/15 08:24:15;;;;;;;0.40;0.00;;;;;;;28.53;52.00;100066.52;126298;1096;103073;-86
2021/07/15 08:26:44;;;;;;;0.40;0.00;;;;;;;28.46;53.30;100087.39;126205;1096;114514;-86
2021/07/15 08:29:11;;;;;;;0.40;0.00;;;;;;;28.38;53.43;100095.58;126366;1096;102924;-86
2021/07/15 08:31:38;;;;;;;0.40;0.00;;;;;;;28.32;54.29;100104.45;126332;1092;114793;-88
2021/07/15 08:34:06;;;;;;;0.40;0.00;;;;;;;28.35;54.09;100121.42;126438;1092;102870;-87
2021/07/15 08:36:33;;;;;;;0.40;0.00;;;;;;;28.46;55.30;100122.16;126431;1092;103042;-84
2021/07/15 08:39:02;;;;;;;0.40;0.00;;;;;;;28.58;53.02;100122.70;126310;1093;114429;-87
2021/07/15 08:41:30;;;;;;;0.40;0.00;;;;;;;28.71;52.68;100127.77;126492;1096;103018;-87
2021/07/15 08:43:59;;;;;;;0.40;0.00;;;;;;;28.80;53.64;100124.88;126424;1093;114088;-86
2021/07/15 08:46:28;;;;;;;0.40;0.00;;;;;;;28.97;53.05;100144.98;126481;1093;102886;-88
2021/07/15 08:49:01;;;;;;;0.40;0.00;;;;;;;29.03;53.41;100152.55;126442;1091;102895;-88
2021/07/15 08:51:29;;;;;;;0.40;0.00;;;;;;;29.17;54.17;100175.72;126671;1093;114208;-87
2021/07/15 08:53:58;;;;;;;0.40;0.00;;;;;;;29.30;53.61;100174.44;126424;1093;103354;-89
2021/07/15 08:56:37;;;;;;;0.40;0.00;;;;;;;29.48;54.05;100174.27;126557;1093;114335;-90
2021/07/15 08:59:08;;;;;;;0.40;0.00;;;;;;;29.57;52.67;100169.67;126448;1092;103017;-89
2021/07/15 09:01:36;;;;;;;0.40;0.00;;;;;;;29.60;52.04;100161.08;126688;1095;113646;-89
2021/07/15 09:04:08;;;;;;;0.40;0.00;;;;;;;29.71;51.99;100168.99;126636;1093;102894;-89
2021/07/15 09:06:42;;;;;;;0.40;0.00;;;;;;;29.94;51.42;100177.42;126541;1096;102888;-86
2021/07/15 09:09:10;;;;;;;0.40;0.00;;;;;;;29.96;50.73;100177.24;126327;1092;114309;-89
2021/07/15 09:11:42;;;;;;;0.40;0.00;;;;;;;30.00;52.10;100167.63;126428;1095;102884;-88
2021/07/15 09:14:29;;;;;;;0.40;0.00;;;;;;;30.19;50.59;100153.53;126559;1093;113802;-90
2021/07/15 09:16:57;;;;;;;0.40;0.00;;;;;;;30.35;51.46;100155.38;126431;1093;102868;-88
2021/07/15 09:19:31;;;;;;;0.40;0.00;;;;;;;30.46;51.29;100159.67;126473;1093;114305;-89
2021/07/15 09:22:28;;;;;;;0.40;0.00;;;;;;;30.51;50.29;100157.26;126500;1093;103013;-90
2021/07/15 09:25:00;;;;;;;0.40;0.00;;;;;;;30.68;50.54;100143.45;126314;1093;102898;-87
2021/07/15 09:27:29;;;;;;;0.40;0.00;;;;;;;30.87;50.12;100138.55;126275;1093;114365;-90
2021/07/15 09:30:14;;;;;;;0.40;0.00;;;;;;;31.02;47.05;100139.52;126301;1091;102872;-89
2021/07/15 09:32:56;;;;;;;0.40;0.00;;;;;;;31.27;46.47;100148.50;126283;1091;114663;-89
2021/07/15 09:35:30;;;;;;;0.40;0.00;;;;;;;31.55;44.93;100130.58;126507;1093;102861;-90
2021/07/15 09:38:14;;;;;;;0.40;0.00;;;;;;;32.31;45.28;100141.62;126357;1093;114462;-88
2021/07/15 09:40:42;;;;;;;0.40;0.00;;;;;;;33.09;43.13;100153.08;126455;1092;102875;-88
2021/07/15 09:43:17;;;;;;;0.40;0.00;;;;;;;33.74;42.64;100158.67;126402;1093;102904;-88
2021/07/15 09:45:45;;;;;;;0.40;0.00;;;;;;;34.47;39.76;100154.80;126292;1093;114234;-90
2021/07/15 09:48:26;;;;;;;0.40;0.00;;;;;;;34.93;38.99;100167.20;126482;1093;102865;-87
2021/07/15 09:50:56;;;;;;;0.40;0.00;;;;;;;35.43;37.92;100180.80;126937;1093;113439;-88
2021/07/15 09:53:29;;;;;;;0.40;0.00;;;;;;;35.79;35.90;100185.11;126993;1093;101095;-87
2021/07/15 09:56:08;;;;;;;0.40;0.00;;;;;;;36.29;36.92;100191.11;126086;1095;114611;-88
2021/07/15 09:58:47;;;;;;;0.40;0.00;;;;;;;35.97;34.89;100199.23;126865;1091;102942;-89
2021/07/15 10:01:22;;;;;;;0.40;0.00;;;;;;;36.30;37.08;100205.84;126558;1096;102893;-85
2021/07/15 10:03:57;;;;;;;0.40;0.00;;;;;;;36.43;33.15;100199.44;126515;1092;115519;-87
2021/07/15 10:06:57;;;;;;;0.40;0.00;;;;;;;36.02;33.57;100226.33;126498;1092;102876;-88
2021/07/15 10:09:30;;;;;;;0.40;0.00;;;;;;;35.92;33.88;100228.66;126400;1095;115162;-87
2021/07/15 10:11:58;;;;;;;0.40;0.00;;;;;;;36.21;33.73;100226.55;126376;1093;103827;-90
2021/07/15 10:14:37;;;;;;;0.40;0.00;;;;;;;36.67;35.06;100224.80;126303;1093;113544;-87
2021/07/15 10:17:44;;;;;;;0.40;0.00;;;;;;;37.04;30.54;100245.42;126431;1093;102971;-84
2021/07/15 10:20:16;;;;;;;0.40;0.00;;;;;;;37.38;32.38;100245.34;126217;1093;114636;-88
2021/07/15 10:22:43;;;;;;;0.40;0.00;;;;;;;37.68;30.90;100253.91;126340;1093;102962;-86
2021/07/15 10:25:11;;;;;;;0.40;0.00;;;;;;;37.42;30.18;100258.55;126455;1092;101877;-91
2021/07/15 10:27:47;;;;;;;0.40;0.00;;;;;;;37.47;31.12;100255.13;126406;1093;114106;-88
2021/07/15 10:30:18;;;;;;;0.40;0.00;;;;;;;37.53;29.45;100253.38;126416;1092;102865;-91
2021/07/15 10:32:50;;;;;;;0.40;0.00;;;;;;;37.33;31.68;100234.03;126277;1093;115613;-86
2021/07/15 10:35:22;;;;;;;0.40;0.00;;;;;;;37.56;31.17;100230.69;126564;1093;102892;-88
2021/07/15 10:37:50;;;;;;;0.40;0.00;;;;;;;37.77;30.61;100222.02;126288;1093;115421;-90
2021/07/15 10:43:53;;;;;;;0.40;0.00;;;;;;;36.68;31.60;100196.83;126863;1092;113421;-87
2021/07/15 10:46:26;;;;;;;0.40;0.00;;;;;;;36.11;31.41;100185.37;126768;1093;102892;-91
2021/07/15 10:49:12;;;;;;;0.40;0.00;;;;;;;35.77;31.28;100196.42;126677;1092;101846;-90
2021/07/15 10:51:43;;;;;;;0.40;0.00;;;;;;;34.87;33.34;100195.69;126249;1092;114585;-90
2021/07/15 10:54:16;;;;;;;0.40;0.00;;;;;;;34.12;33.69;100219.20;126314;1093;102866;-87
2021/07/15 10:56:51;;;;;;;0.40;0.00;;;;;;;33.41;34.93;100222.70;126173;1093;114798;-90
2021/07/15 11:03:16;;;;;;;0.40;0.00;;;;;;;32.10;39.38;100197.45;126210;1093;114326;-89
2021/07/15 11:05:58;;;;;;;0.40;0.00;;;;;;;31.59;41.20;100197.98;126446;1096;103068;-85
2021/07/15 11:08:44;;;;;;;0.40;0.00;;;;;;;31.26;41.66;100190.81;126340;1093;114642;-88
2021/07/15 11:14:49;;;;;;;0.40;0.00;;;;;;;30.29;44.76;100185.45;126401;1092;114489;-89
2021/07/15 11:17:28;;;;;;;0.40;0.00;;;;;;;30.09;46.03;100196.80;126322;1096;102990;-88
2021/07/15 11:20:06;;;;;;;0.40;0.00;;;;;;;30.15;47.24;100182.38;126806;1093;114193;-89
2021/07/15 11:22:51;;;;;;;0.40;0.00;;;;;;;30.11;45.45;100171.90;126558;1093;102878;-89
2021/07/15 11:25:35;;;;;;;0.40;0.00;;;;;;;30.23;47.15;100181.52;126617;1093;102810;-90
2021/07/15 11:28:23;;;;;;;0.40;0.00;;;;;;;30.40;46.38;100175.98;126304;1093;114404;-90
2021/07/15 11:30:53;;;;;;;0.40;0.00;;;;;;;30.66;45.29;100170.27;126428;1093;102943;-88
2021/07/15 11:33:23;;;;;;;0.40;0.00;;;;;;;30.61;45.88;100170.79;126314;1092;114347;-88
2021/07/15 11:36:05;;;;;;;0.40;0.00;;;;;;;30.58;45.68;100167.56;126397;1092;102902;-89
2021/07/15 11:38:46;;;;;;;0.40;0.00;;;;;;;30.46;46.66;100172.57;126755;1093;114675;-88
2021/07/15 11:41:15;;;;;;;0.40;0.00;;;;;;;30.31;45.99;100159.52;126389;1093;102880;-89
2021/07/15 11:43:50;;;;;;;0.40;0.00;;;;;;;30.15;46.40;100154.91;126913;1093;114555;-88
2021/07/15 11:46:32;;;;;;;0.40;0.00;;;;;;;29.89;46.78;100154.27;126359;1093;103020;-90
2021/07/15 11:49:05;;;;;;;0.40;0.00;;;;;;;29.92;47.97;100148.42;126379;1092;102879;-88
2021/07/15 11:51:36;;;;;;;0.40;0.00;;;;;;;29.91;46.75;100133.84;126514;1093;115969;-88
2021/07/15 11:54:32;;;;;;;0.40;0.00;;;;;;;29.88;47.42;100125.09;126484;1093;101798;-88
2021/07/15 11:57:33;;;;;;;0.40;0.00;;;;;;;29.91;46.75;100121.98;126241;1093;113795;-86
2021/07/15 12:00:03;;;;;;;0.40;0.00;;;;;;;29.70;46.29;100126.10;126367;1093;102953;-89
2021/07/15 12:02:42;;;;;;;0.40;0.00;;;;;;;29.66;45.41;100132.97;126365;1092;116252;-88
2021/07/15 12:09:12;;;;;;;0.40;0.00;;;;;;;29.31;47.71;100156.92;125935;1098;114120;-89
2021/07/15 12:11:41;;;;;;;0.40;0.00;;;;;;;29.25;47.39;100149.35;126185;1098;103055;-88
2021/07/15 12:14:10;;;;;;;0.40;0.00;;;;;;;29.29;47.13;100145.28;125978;1098;114569;-89
2021/07/15 12:20:12;;;;;;;0.40;0.00;;;;;;;29.46;47.33;100140.67;126153;1096;113703;-89
2021/07/15 12:23:16;;;;;;;0.40;0.00;;;;;;;29.47;46.21;100129.53;126415;1096;103032;-88
2021/07/15 12:25:46;;;;;;;0.40;0.00;;;;;;;29.43;47.95;100133.64;126248;1095;114796;-89
2021/07/15 12:28:24;;;;;;;0.40;0.00;;;;;;;29.46;48.53;100130.55;126511;1094;102972;-89
2021/07/15 12:30:54;;;;;;;0.40;0.00;;;;;;;29.56;47.03;100126.78;126730;1095;102948;-88
2021/07/15 12:33:35;;;;;;;0.40;0.00;;;;;;;29.60;46.66;100122.66;126558;1096;113437;-88
2021/07/15 12:36:22;;;;;;;0.40;0.00;;;;;;;29.76;45.74;100108.08;126869;1095;100994;-88
2021/07/15 12:39:03;;;;;;;0.40;0.00;;;;;;;29.92;47.74;100101.73;126374;1095;116102;-89
2021/07/15 12:41:35;;;;;;;0.40;0.00;;;;;;;29.88;46.60;100092.98;126082;1095;103090;-90
2021/07/15 12:44:51;;;;;;;0.40;0.00;;;;;;;30.00;44.97;100088.87;126543;1096;116161;-89
2021/07/15 12:47:25;;;;;;;0.40;0.00;;;;;;;29.90;45.69;100088.19;127043;1096;100781;-88
2021/07/15 12:49:52;;;;;;;0.40;0.00;;;;;;;29.84;47.07;100083.35;126970;1093;114055;-90
2021/07/15 12:52:20;;;;;;;0.40;0.00;;;;;;;29.66;45.27;100070.69;126338;1093;103109;-89